createdAt,value
2023-05-09T00:02:50.847Z,65.24
2023-05-09T00:05:24.620Z,65.08
2023-05-09T00:07:59.809Z,65.77
2023-05-09T00:10:34.265Z,66.67
2023-05-09T00:13:09.208Z,67.25
2023-05-09T00:15:42.584Z,68.18
2023-05-09T00:18:20.107Z,68.14
2023-05-09T00:20:54.193Z,68.49
2023-05-09T00:23:27.137Z,68.23
2023-05-09T00:26:01.786Z,68.28
2023-05-09T00:28:28.575Z,68.48
2023-05-09T00:31:02.762Z,68.09
2023-05-09T00:33:37.183Z,67.62
2023-05-09T00:36:12.508Z,66.77
2023-05-09T00:38:36.097Z,67.11
2023-05-09T00:41:10.721Z,67.59
2023-05-09T00:43:44.283Z,67.32
2023-05-09T00:46:13.024Z,67.35
2023-05-09T00:48:48.040Z,67.33
2023-05-09T00:51:23.797Z,67.70
2023-05-09T00:53:58.327Z,67.42
2023-05-09T00:56:31.784Z,67.09
2023-05-09T00:59:05.571Z,66.81
2023-05-09T01:01:32.625Z,66.91
2023-05-09T01:04:09.085Z,67.17
2023-05-09T01:06:55.824Z,66.70
2023-05-09T01:09:47.059Z,66.94
2023-05-09T01:12:20.098Z,67.27
2023-05-09T01:15:02.289Z,67.60
2023-05-09T01:17:42.235Z,67.69
2023-05-09T01:20:15.760Z,67.74
2023-05-09T01:22:56.193Z,67.32
2023-05-09T01:25:48.155Z,67.32
2023-05-09T01:28:33.687Z,67.22
2023-05-09T01:31:09.621Z,66.84
2023-05-09T01:33:41.963Z,67.38
2023-05-09T01:36:19.622Z,67.91
2023-05-09T01:38:52.228Z,68.10
2023-05-09T01:41:28.482Z,67.47
2023-05-09T01:44:02.771Z,67.27
2023-05-09T01:46:38.405Z,66.90
2023-05-09T01:49:13.837Z,67.18
2023-05-09T01:51:48.428Z,66.89
2023-05-09T01:54:26.468Z,66.75
2023-05-09T01:57:02.284Z,66.54
2023-05-09T01:59:39.437Z,66.90
2023-05-09T02:02:15.877Z,66.90
2023-05-09T02:04:53.118Z,66.92
2023-05-09T02:07:16.287Z,66.56
2023-05-09T02:09:50.305Z,66.54
2023-05-09T02:12:24.717Z,67.01
2023-05-09T02:14:59.324Z,67.21
2023-05-09T02:17:22.666Z,67.05
2023-05-09T02:19:56.323Z,67.24
2023-05-09T02:22:24.308Z,66.68
2023-05-09T02:24:58.520Z,66.79
2023-05-09T02:27:22.474Z,66.94
2023-05-09T02:30:01.376Z,67.18
2023-05-09T02:32:37.389Z,67.22
2023-05-09T02:35:16.144Z,67.47
2023-05-09T02:37:50.917Z,67.46
2023-05-09T02:40:25.604Z,67.36
2023-05-09T02:43:00.281Z,67.33
2023-05-09T02:45:34.086Z,67.53
2023-05-09T02:47:51.137Z,67.65
2023-05-09T02:50:05.205Z,67.79
2023-05-09T02:52:22.654Z,67.86
2023-05-09T02:54:39.614Z,68.12
2023-05-09T02:57:06.445Z,68.14
2023-05-09T02:59:29.513Z,68.18
2023-05-09T03:02:01.947Z,68.19
2023-05-09T03:04:17.704Z,68.37
2023-05-09T03:06:46.167Z,68.60
2023-05-09T03:09:03.412Z,68.68
2023-05-09T03:11:28.942Z,68.70
2023-05-09T03:13:42.743Z,68.89
2023-05-09T03:16:07.332Z,69.10
2023-05-09T03:18:34.723Z,69.26
2023-05-09T03:20:55.307Z,69.36
2023-05-09T03:23:13.341Z,69.58
2023-05-09T03:25:29.143Z,69.71
2023-05-09T03:28:02.638Z,69.87
2023-05-09T03:30:27.639Z,70.13
2023-05-09T03:32:45.152Z,70.08
2023-05-09T03:35:11.098Z,70.13
2023-05-09T03:37:27.206Z,70.21
2023-05-09T03:39:56.188Z,70.38
2023-05-09T03:42:17.480Z,70.46
2023-05-09T03:44:37.579Z,70.56
2023-05-09T03:47:01.112Z,70.61
2023-05-09T03:49:28.196Z,70.71
2023-05-09T03:52:02.684Z,70.81
2023-05-09T03:54:22.905Z,70.87
2023-05-09T03:56:49.632Z,70.98
2023-05-09T03:59:14.328Z,71.07
2023-05-09T04:01:32.068Z,71.18
2023-05-09T04:04:07.028Z,71.24
2023-05-09T04:06:42.911Z,71.35
2023-05-09T04:09:00.927Z,71.39
2023-05-09T04:11:34.612Z,71.45
2023-05-09T04:13:56.517Z,71.46
2023-05-09T04:16:33.590Z,71.62
2023-05-09T04:18:56.276Z,71.59
2023-05-09T04:21:24.481Z,71.80
2023-05-09T04:23:49.409Z,71.83
2023-05-09T04:26:17.408Z,71.91
2023-05-09T04:28:51.369Z,71.92
2023-05-09T04:31:15.848Z,72.04
2023-05-09T04:33:46.208Z,72.13
2023-05-09T04:36:01.059Z,72.14
2023-05-09T04:38:21.277Z,72.22
2023-05-09T04:40:40.734Z,72.37
2023-05-09T04:42:58.562Z,72.49
2023-05-09T04:45:32.086Z,72.58
2023-05-09T04:47:58.975Z,72.72
2023-05-09T04:50:24.773Z,72.70
2023-05-09T04:52:50.332Z,72.81
2023-05-09T04:55:26.234Z,72.94
2023-05-09T04:58:00.738Z,72.93
2023-05-09T05:00:35.254Z,72.94
2023-05-09T05:03:00.884Z,73.08
2023-05-09T05:05:36.968Z,73.01
2023-05-09T05:08:12.823Z,73.09
2023-05-09T05:10:35.112Z,73.24
2023-05-09T05:13:08.480Z,73.22
2023-05-09T05:15:29.633Z,73.32
2023-05-09T05:18:01.537Z,73.29
2023-05-09T05:20:34.652Z,73.28
2023-05-09T05:23:08.040Z,73.44
2023-05-09T05:25:42.603Z,73.54
2023-05-09T05:28:01.406Z,73.49
2023-05-09T05:30:24.462Z,73.62
2023-05-09T05:32:58.603Z,73.63
2023-05-09T05:35:32.173Z,73.66
2023-05-09T05:37:49.216Z,73.79
2023-05-09T05:40:22.570Z,73.80
2023-05-09T05:42:53.736Z,73.74
2023-05-09T05:45:27.892Z,73.76
2023-05-09T05:47:50.882Z,73.86
2023-05-09T05:50:18.788Z,73.83
2023-05-09T05:52:50.137Z,73.94
2023-05-09T05:55:10.964Z,73.94
2023-05-09T05:57:24.340Z,74.03
2023-05-09T05:59:45.087Z,74.07
2023-05-09T06:05:08.178Z,73.66
2023-05-09T06:07:43.099Z,73.57
2023-05-09T06:10:18.235Z,73.79
2023-05-09T06:12:40.394Z,73.69
2023-05-09T06:15:16.246Z,73.50
2023-05-09T06:17:50.186Z,73.61
2023-05-09T06:20:18.121Z,73.55
2023-05-09T06:22:50.882Z,73.58
2023-05-09T06:25:17.034Z,73.74
2023-05-09T06:27:39.755Z,73.68
2023-05-09T06:30:14.184Z,73.95
2023-05-09T06:32:50.824Z,74.12
2023-05-09T06:35:17.770Z,74.20
2023-05-09T06:37:51.300Z,74.17
2023-05-09T06:40:24.142Z,74.30
2023-05-09T06:42:46.640Z,74.24
2023-05-09T06:45:21.660Z,74.23
2023-05-09T06:47:55.434Z,74.17
2023-05-09T06:50:14.998Z,74.12
2023-05-09T06:52:37.636Z,74.08
2023-05-09T06:55:13.402Z,74.11
2023-05-09T06:57:46.578Z,74.22
2023-05-09T07:00:17.998Z,74.48
2023-05-09T07:02:51.321Z,74.60
2023-05-09T07:05:24.729Z,74.61
2023-05-09T07:07:58.464Z,74.45
2023-05-09T07:10:32.800Z,74.42
2023-05-09T07:13:06.065Z,74.58
2023-05-09T07:15:42.483Z,74.58
2023-05-09T07:18:16.875Z,74.83
2023-05-09T07:20:43.936Z,74.76
2023-05-09T07:23:17.659Z,74.55
2023-05-09T07:25:45.048Z,74.68
2023-05-09T07:28:13.401Z,74.58
2023-05-09T07:30:46.966Z,74.77
2023-05-09T07:33:21.088Z,74.97
2023-05-09T07:35:55.824Z,75.02
2023-05-09T07:38:30.058Z,75.33
2023-05-09T07:41:03.445Z,75.42
2023-05-09T07:43:37.233Z,75.31
2023-05-09T07:46:09.952Z,75.30
2023-05-09T07:48:42.977Z,75.14
2023-05-09T07:51:05.102Z,74.92
2023-05-09T07:53:39.318Z,74.93
2023-05-09T07:56:14.454Z,74.95
2023-05-09T07:58:49.324Z,74.93
2023-05-09T08:01:22.644Z,75.08
2023-05-09T08:03:56.322Z,74.93
2023-05-09T08:06:25.486Z,75.05
2023-05-09T08:08:58.105Z,75.00
2023-05-09T08:11:33.592Z,75.20
2023-05-09T08:14:00.965Z,75.38
2023-05-09T08:16:36.135Z,75.48
2023-05-09T08:19:10.144Z,75.45
2023-05-09T08:21:44.432Z,75.40
2023-05-09T08:24:09.130Z,75.54
2023-05-09T08:26:41.776Z,75.51
2023-05-09T08:29:10.081Z,75.52
2023-05-09T08:31:45.355Z,75.51
2023-05-09T08:34:18.474Z,75.51
2023-05-09T08:36:54.143Z,75.52
2023-05-09T08:39:28.643Z,75.58
2023-05-09T08:41:51.743Z,75.55
2023-05-09T08:44:25.134Z,75.55
2023-05-09T08:47:01.910Z,75.67
2023-05-09T08:49:37.655Z,75.62
2023-05-09T08:52:12.643Z,75.73
2023-05-09T08:54:47.825Z,75.80
2023-05-09T08:57:21.173Z,75.84
2023-05-09T08:59:48.410Z,75.90
2023-05-09T09:02:22.711Z,75.93
2023-05-09T09:04:56.953Z,75.93
2023-05-09T09:07:34.042Z,75.97
2023-05-09T09:10:07.594Z,76.11
2023-05-09T09:12:36.276Z,76.14
2023-05-09T09:15:06.410Z,76.20
2023-05-09T09:17:44.099Z,76.22
2023-05-09T09:20:19.275Z,76.21
2023-05-09T09:22:55.448Z,76.29
2023-05-09T09:25:28.770Z,76.46
2023-05-09T09:28:02.519Z,76.68
2023-05-09T09:30:36.298Z,76.87
2023-05-09T09:33:13.216Z,76.78
2023-05-09T09:35:48.537Z,77.11
2023-05-09T09:38:23.777Z,77.33
2023-05-09T09:40:51.692Z,77.28
2023-05-09T09:43:30.098Z,77.37
2023-05-09T09:46:01.158Z,77.35
2023-05-09T09:51:19.390Z,77.52
2023-05-09T09:53:54.003Z,77.72
2023-05-09T09:56:41.251Z,77.73
2023-05-09T09:59:18.074Z,77.81
2023-05-09T10:02:08.534Z,78.06
2023-05-09T10:04:44.389Z,78.30
2023-05-09T10:07:14.815Z,78.42
2023-05-09T10:09:50.672Z,78.28
2023-05-09T10:15:15.792Z,78.51
2023-05-09T10:17:49.597Z,78.52
2023-05-09T10:20:16.404Z,78.53
2023-05-09T10:22:50.598Z,78.61
2023-05-09T10:25:21.325Z,78.60
2023-05-09T10:27:57.305Z,78.68
2023-05-09T10:30:35.472Z,78.84
2023-05-09T10:33:13.337Z,78.80
2023-05-09T10:35:50.829Z,78.99
2023-05-09T10:38:25.708Z,78.91
2023-05-09T10:41:00.357Z,79.03
2023-05-09T10:43:36.681Z,79.12
2023-05-09T10:46:06.661Z,79.08
2023-05-09T10:48:40.806Z,79.13
2023-05-09T10:51:04.745Z,79.18
2023-05-09T10:53:43.481Z,79.16
2023-05-09T10:59:04.976Z,79.15
2023-05-09T11:01:40.657Z,79.29
2023-05-09T11:04:20.156Z,79.32
2023-05-09T11:06:57.698Z,79.44
2023-05-09T11:09:34.006Z,79.39
2023-05-09T11:12:16.833Z,79.44
2023-05-09T11:14:51.413Z,79.45
2023-05-09T11:17:35.132Z,79.54
2023-05-09T11:20:10.607Z,79.47
2023-05-09T11:22:48.449Z,79.60
2023-05-09T11:25:18.107Z,79.90
2023-05-09T11:27:53.165Z,79.92
2023-05-09T11:30:38.031Z,79.97
2023-05-09T11:33:24.893Z,79.80
2023-05-09T11:35:51.729Z,79.80
2023-05-09T11:38:31.171Z,79.90
2023-05-09T11:41:06.054Z,79.87
2023-05-09T11:43:41.201Z,80.05
2023-05-09T11:46:16.446Z,80.14
2023-05-09T11:48:51.717Z,80.04
2023-05-09T11:51:25.249Z,80.04
2023-05-09T11:53:59.112Z,80.05
2023-05-09T11:56:33.318Z,80.26
2023-05-09T11:59:07.990Z,80.31
2023-05-09T12:01:43.710Z,80.30
2023-05-09T12:04:15.427Z,80.39
2023-05-09T12:06:53.705Z,80.44
2023-05-09T12:09:28.432Z,80.58
2023-05-09T12:12:02.323Z,80.61
2023-05-09T12:14:37.614Z,80.53
2023-05-09T12:17:11.805Z,80.32
2023-05-09T12:19:47.859Z,80.46
2023-05-09T12:22:22.667Z,80.22
2023-05-09T12:24:56.574Z,80.28
2023-05-09T12:27:19.895Z,80.18
2023-05-09T12:29:45.433Z,80.09
2023-05-09T12:32:08.866Z,80.31
2023-05-09T12:34:35.410Z,80.17
2023-05-09T12:36:59.641Z,80.32
2023-05-09T12:39:34.190Z,80.27
2023-05-09T12:42:14.921Z,80.37
2023-05-09T12:44:54.737Z,80.63
2023-05-09T12:47:21.938Z,80.63
2023-05-09T12:49:56.368Z,80.59
2023-05-09T12:52:24.784Z,80.45
2023-05-09T12:54:58.211Z,80.15
2023-05-09T12:57:31.642Z,80.21
2023-05-09T13:00:08.168Z,80.14
2023-05-09T13:02:47.251Z,79.97
2023-05-09T13:05:24.389Z,80.10
2023-05-09T13:08:00.048Z,79.91
2023-05-09T13:10:33.361Z,79.88
2023-05-09T13:13:07.575Z,79.75
2023-05-09T13:15:41.368Z,79.72
2023-05-09T13:18:15.937Z,79.97
2023-05-09T13:20:48.479Z,79.99
2023-05-09T13:23:23.332Z,80.03
2023-05-09T13:25:56.982Z,80.18
2023-05-09T13:28:31.506Z,80.22
2023-05-09T13:30:53.783Z,80.56
2023-05-09T13:35:57.366Z,80.55
2023-05-09T13:38:23.677Z,80.66
2023-05-09T13:40:56.357Z,80.71
2023-05-09T13:43:29.747Z,80.77
2023-05-09T13:46:06.196Z,80.69
2023-05-09T13:48:34.616Z,80.78
2023-05-09T13:51:02.357Z,81.00
2023-05-09T13:53:30.503Z,80.98
2023-05-09T13:55:58.790Z,80.90
2023-05-09T13:58:33.198Z,80.89
2023-05-09T14:01:06.196Z,80.86
2023-05-09T14:03:39.809Z,81.02
2023-05-09T14:06:15.489Z,81.01
2023-05-09T14:08:42.541Z,81.19
2023-05-09T14:11:14.545Z,81.18
2023-05-09T14:13:49.880Z,81.18
2023-05-09T14:16:23.775Z,81.32
2023-05-09T14:18:47.829Z,81.40
2023-05-09T14:21:20.889Z,81.49
2023-05-09T14:23:55.174Z,81.36
2023-05-09T14:26:28.551Z,80.62
2023-05-09T14:29:02.393Z,80.08
2023-05-09T14:31:29.327Z,80.31
2023-05-09T14:34:03.243Z,80.16
2023-05-09T14:36:39.512Z,79.87
2023-05-09T14:39:12.273Z,79.86
2023-05-09T14:41:45.606Z,79.77
2023-05-09T14:44:19.589Z,79.75
2023-05-09T14:46:53.301Z,79.52
2023-05-09T14:49:26.123Z,79.25
2023-05-09T14:51:57.402Z,79.02
2023-05-09T14:54:31.787Z,79.04
2023-05-09T14:57:06.028Z,78.78
2023-05-09T14:59:39.599Z,78.75
2023-05-09T15:02:13.512Z,78.43
2023-05-09T15:04:37.462Z,78.32
2023-05-09T15:07:10.853Z,78.26
2023-05-09T15:09:44.994Z,78.34
2023-05-09T15:12:18.263Z,78.23
2023-05-09T15:14:54.813Z,78.05
2023-05-09T15:17:28.387Z,77.99
2023-05-09T15:19:51.298Z,77.96
2023-05-09T15:22:19.451Z,77.92
2023-05-09T15:24:52.331Z,78.07
2023-05-09T15:27:25.011Z,77.98
2023-05-09T15:29:57.000Z,78.12
2023-05-09T15:32:23.140Z,77.82
2023-05-09T15:34:56.134Z,77.75
2023-05-09T15:37:29.200Z,77.77
2023-05-09T15:40:04.018Z,77.40
2023-05-09T15:42:38.025Z,77.03
2023-05-09T15:45:05.679Z,76.81
2023-05-09T15:47:39.117Z,76.93
2023-05-09T15:50:16.023Z,76.80
2023-05-09T15:52:50.155Z,76.66
2023-05-09T15:55:18.603Z,76.55
2023-05-09T15:57:52.593Z,76.53
2023-05-09T16:00:27.202Z,76.58
2023-05-09T16:02:50.088Z,76.65
2023-05-09T16:05:25.541Z,76.86
2023-05-09T16:07:58.933Z,77.03
2023-05-09T16:10:33.814Z,77.20
2023-05-09T16:12:57.579Z,76.95
2023-05-09T16:18:19.164Z,76.92
2023-05-09T16:23:40.596Z,76.87
2023-05-09T16:26:13.865Z,77.12
2023-05-09T16:28:58.639Z,76.92
2023-05-09T16:31:35.375Z,76.56
2023-05-09T16:34:09.590Z,76.51
2023-05-09T16:36:38.211Z,76.22
2023-05-09T16:39:12.472Z,75.96
2023-05-09T16:41:48.350Z,75.87
2023-05-09T16:44:22.471Z,75.88
2023-05-09T16:46:56.381Z,74.88
2023-05-09T16:49:30.000Z,75.21
2023-05-09T16:51:49.391Z,75.61
2023-05-09T16:54:18.464Z,75.26
2023-05-09T16:56:57.097Z,74.63
2023-05-09T16:59:31.419Z,74.49
2023-05-09T17:01:54.982Z,74.60
2023-05-09T17:04:23.077Z,74.76
2023-05-09T17:06:56.463Z,74.66
2023-05-09T17:09:29.941Z,75.06
2023-05-09T17:12:03.579Z,75.16
2023-05-09T17:14:37.500Z,75.23
2023-05-09T17:17:11.561Z,75.13
2023-05-09T17:19:45.061Z,75.20
2023-05-09T17:22:12.203Z,75.41
2023-05-09T17:24:45.848Z,75.39
2023-05-09T17:27:19.808Z,75.50
2023-05-09T17:29:53.822Z,75.34
2023-05-09T17:32:13.280Z,75.32
2023-05-09T17:34:47.971Z,74.39
2023-05-09T17:37:23.390Z,74.05
2023-05-09T17:39:57.899Z,74.21
2023-05-09T17:42:33.399Z,74.22
2023-05-09T17:45:07.458Z,74.46
2023-05-09T17:47:41.589Z,73.92
2023-05-09T17:49:55.669Z,74.00
2023-05-09T17:52:29.936Z,73.25
2023-05-09T17:55:05.230Z,73.10
2023-05-09T17:57:39.677Z,72.55
2023-05-09T18:00:17.481Z,72.32
2023-05-09T18:02:32.113Z,71.69
2023-05-09T18:05:06.902Z,72.74
2023-05-09T18:07:42.059Z,72.38
2023-05-09T18:10:06.323Z,72.07
2023-05-09T18:12:40.141Z,71.69
2023-05-09T18:15:15.616Z,71.64
2023-05-09T18:17:50.382Z,71.70
2023-05-09T18:20:24.201Z,71.37
2023-05-09T18:25:45.539Z,71.07
2023-05-09T18:28:23.970Z,70.00
2023-05-09T18:31:00.748Z,69.52
2023-05-09T18:33:37.982Z,70.16
2023-05-09T18:36:13.109Z,70.31
2023-05-09T18:38:49.419Z,70.63
2023-05-09T18:41:25.184Z,70.16
2023-05-09T18:44:01.033Z,70.25
2023-05-09T18:46:22.856Z,70.56
2023-05-09T18:48:46.000Z,70.72
2023-05-09T18:51:20.455Z,70.11
2023-05-09T18:53:55.161Z,68.81
2023-05-09T18:56:28.688Z,68.40
2023-05-09T18:58:56.202Z,68.42
2023-05-09T19:01:30.250Z,68.56
2023-05-09T19:03:55.333Z,69.13
2023-05-09T19:06:30.034Z,68.47
2023-05-09T19:09:03.230Z,68.41
2023-05-09T19:11:30.048Z,67.81
2023-05-09T19:14:04.622Z,68.27
2023-05-09T19:16:31.530Z,68.19
2023-05-09T19:19:06.560Z,68.14
2023-05-09T19:21:32.256Z,68.29
2023-05-09T19:24:09.236Z,67.77
2023-05-09T19:26:36.374Z,68.07
2023-05-09T19:28:59.661Z,68.69
2023-05-09T19:31:33.485Z,68.92
2023-05-09T19:34:08.728Z,67.86
2023-05-09T19:36:42.899Z,67.29
2023-05-09T19:39:16.538Z,68.01
2023-05-09T19:41:42.776Z,68.75
2023-05-09T19:44:16.727Z,68.28
2023-05-09T19:46:50.345Z,68.26
2023-05-09T19:49:23.681Z,68.66
2023-05-09T19:51:57.078Z,68.52
2023-05-09T19:54:33.169Z,68.36
2023-05-09T19:57:07.945Z,67.40
2023-05-09T19:59:42.828Z,67.82
2023-05-09T20:02:17.424Z,67.85
2023-05-09T20:04:42.583Z,67.66
2023-05-09T20:07:17.867Z,68.03
2023-05-09T20:09:53.595Z,68.53
2023-05-09T20:12:28.683Z,69.28
2023-05-09T20:15:04.519Z,69.12
2023-05-09T20:17:29.751Z,68.66
2023-05-09T20:20:03.979Z,68.09
2023-05-09T20:22:27.407Z,68.06
2023-05-09T20:25:01.106Z,67.58
2023-05-09T20:27:36.513Z,66.84
2023-05-09T20:30:13.672Z,65.62
2023-05-09T20:32:47.013Z,67.39
2023-05-09T20:35:22.395Z,67.06
2023-05-09T20:37:55.930Z,67.40
2023-05-09T20:40:30.837Z,66.48
2023-05-09T20:43:04.445Z,66.91
2023-05-09T20:45:39.433Z,66.62
2023-05-09T20:48:12.634Z,65.79
2023-05-09T20:50:47.557Z,66.30
2023-05-09T20:53:09.900Z,66.60
2023-05-09T20:55:44.152Z,66.04
2023-05-09T20:58:06.963Z,65.57
2023-05-09T21:00:40.383Z,65.28
2023-05-09T21:03:14.910Z,64.33
2023-05-09T21:05:48.397Z,64.68
2023-05-09T21:08:11.999Z,64.16
2023-05-09T21:10:45.794Z,64.33
2023-05-09T21:13:22.539Z,64.03
2023-05-09T21:15:57.432Z,64.13
2023-05-09T21:18:32.334Z,64.34
2023-05-09T21:21:09.928Z,64.29
2023-05-09T21:23:44.801Z,62.92
2023-05-09T21:26:18.532Z,63.24
2023-05-09T21:28:52.568Z,63.69
2023-05-09T21:31:26.329Z,63.85
2023-05-09T21:33:50.569Z,64.17
2023-05-09T21:36:14.988Z,64.49
2023-05-09T21:38:48.588Z,64.85
2023-05-09T21:41:09.140Z,64.75
2023-05-09T21:43:32.126Z,65.35
2023-05-09T21:46:06.929Z,64.60
2023-05-09T21:48:40.567Z,64.55
2023-05-09T21:51:16.277Z,64.65
2023-05-09T21:53:50.356Z,64.63
2023-05-09T21:56:26.278Z,64.26
2023-05-09T21:58:59.917Z,64.87
2023-05-09T22:01:33.133Z,65.11
2023-05-09T22:04:08.431Z,65.74
2023-05-09T22:06:36.547Z,65.32
2023-05-09T22:09:10.871Z,65.35
2023-05-09T22:11:44.158Z,64.64
2023-05-09T22:14:07.909Z,64.09
2023-05-09T22:16:43.355Z,62.97
2023-05-09T22:19:16.869Z,64.05
2023-05-09T22:21:43.103Z,62.81
2023-05-09T22:24:17.225Z,62.63
2023-05-09T22:26:50.939Z,63.51
2023-05-09T22:29:24.537Z,63.59
2023-05-09T22:31:58.417Z,63.06
2023-05-09T22:34:31.826Z,63.86
2023-05-09T22:36:57.067Z,63.24
2023-05-09T22:39:22.954Z,62.14
2023-05-09T22:41:44.871Z,61.59
2023-05-09T22:44:19.379Z,62.08
2023-05-09T22:46:42.347Z,61.50
2023-05-09T22:49:09.414Z,62.10
2023-05-09T22:51:43.270Z,62.11
2023-05-09T22:54:21.658Z,62.25
2023-05-09T22:56:56.589Z,62.86
2023-05-09T22:59:31.660Z,62.70
2023-05-09T23:02:07.750Z,63.67
2023-05-09T23:04:34.261Z,62.86
2023-05-09T23:07:07.863Z,62.97
2023-05-09T23:09:47.151Z,63.13
2023-05-09T23:12:21.899Z,62.18
2023-05-09T23:14:55.881Z,62.61
2023-05-09T23:17:29.961Z,63.33
2023-05-09T23:20:05.388Z,61.77
2023-05-09T23:22:40.220Z,61.50
2023-05-09T23:25:04.390Z,61.90
2023-05-09T23:27:41.626Z,62.13
2023-05-09T23:30:17.482Z,61.67
2023-05-09T23:32:44.233Z,61.20
2023-05-09T23:35:20.631Z,61.48
2023-05-09T23:37:54.493Z,61.68
2023-05-09T23:40:28.494Z,61.53
2023-05-09T23:43:02.288Z,62.06
2023-05-09T23:45:29.286Z,61.98
2023-05-09T23:48:04.080Z,61.26
2023-05-09T23:50:38.436Z,61.20
2023-05-09T23:53:13.126Z,62.21
2023-05-09T23:55:47.431Z,62.06
2023-05-09T23:58:11.978Z,62.47
